sensor_id;sensor_type;location;lat;lon;timestamp;pressure;altitude;pressure_sealevel;temperature;humidity
55068;BME280;40965;52.368;9.712;2023-02-19T00:01:35;100730.22;;;8.08;100.00
55068;BME280;40965;52.368;9.712;2023-02-19T00:04:12;100732.84;;;8.08;100.00
55068;BME280;40965;52.368;9.712;2023-02-19T00:06:42;100725.91;;;8.10;100.00
55068;BME280;40965;52.368;9.712;2023-02-19T00:09:11;100732.88;;;8.11;100.00
55068;BME280;40965;52.368;9.712;2023-02-19T00:11:38;100731.09;;;8.15;100.00
55068;BME280;40965;52.368;9.712;2023-02-19T00:14:06;100723.31;;;8.18;100.00
55068;BME280;40965;52.368;9.712;2023-02-19T00:16:35;100707.66;;;8.18;100.00
55068;BME280;40965;52.368;9.712;2023-02-19T00:19:04;100696.34;;;8.16;100.00
55068;BME280;40965;52.368;9.712;2023-02-19T00:21:34;100691.13;;;8.17;100.00
55068;BME280;40965;52.368;9.712;2023-02-19T00:24:03;100694.59;;;8.15;100.00
55068;BME280;40965;52.368;9.712;2023-02-19T00:26:31;100693.75;;;8.16;100.00
55068;BME280;40965;52.368;9.712;2023-02-19T00:28:59;100692.00;;;8.21;100.00
55068;BME280;40965;52.368;9.712;2023-02-19T00:31:29;100694.66;;;8.24;100.00
55068;BME280;40965;52.368;9.712;2023-02-19T00:33:59;100697.25;;;8.24;100.00
55068;BME280;40965;52.368;9.712;2023-02-19T00:36:28;100694.63;;;8.28;100.00
55068;BME280;40965;52.368;9.712;2023-02-19T00:38:54;100688.56;;;8.30;100.00
55068;BME280;40965;52.368;9.712;2023-02-19T00:41:22;100684.22;;;8.33;100.00
55068;BME280;40965;52.368;9.712;2023-02-19T00:43:55;100676.38;;;8.30;100.00
55068;BME280;40965;52.368;9.712;2023-02-19T00:46:26;100667.69;;;8.20;100.00
55068;BME280;40965;52.368;9.712;2023-02-19T00:48:54;100664.19;;;8.12;100.00
55068;BME280;40965;52.368;9.712;2023-02-19T00:51:24;100651.13;;;8.01;100.00
55068;BME280;40965;52.368;9.712;2023-02-19T00:53:52;100645.91;;;7.92;100.00
55068;BME280;40965;52.368;9.712;2023-02-19T00:56:19;100647.63;;;7.87;100.00
55068;BME280;40965;52.368;9.712;2023-02-19T00:58:47;100644.16;;;7.85;100.00
55068;BME280;40965;52.368;9.712;2023-02-19T01:01:14;100636.34;;;7.83;100.00
55068;BME280;40965;52.368;9.712;2023-02-19T01:03:42;100638.94;;;7.82;100.00
55068;BME280;40965;52.368;9.712;2023-02-19T01:06:10;100631.97;;;7.82;100.00
55068;BME280;40965;52.368;9.712;2023-02-19T01:08:39;100633.72;;;7.83;100.00
55068;BME280;40965;52.368;9.712;2023-02-19T01:11:07;100641.53;;;7.85;100.00
55068;BME280;40965;52.368;9.712;2023-02-19T01:13:35;100648.50;;;7.83;100.00
55068;BME280;40965;52.368;9.712;2023-02-19T01:16:17;100656.31;;;7.81;100.00
55068;BME280;40965;52.368;9.712;2023-02-19T01:18:45;100652.84;;;7.79;100.00
55068;BME280;40965;52.368;9.712;2023-02-19T01:21:14;100661.53;;;7.81;100.00
55068;BME280;40965;52.368;9.712;2023-02-19T01:23:47;100674.53;;;7.78;100.00
55068;BME280;40965;52.368;9.712;2023-02-19T01:26:20;100690.19;;;7.76;100.00
55068;BME280;40965;52.368;9.712;2023-02-19T01:28:47;100666.72;;;7.76;100.00
55068;BME280;40965;52.368;9.712;2023-02-19T01:31:17;100678.00;;;7.72;100.00
55068;BME280;40965;52.368;9.712;2023-02-19T01:33:45;100674.50;;;7.58;100.00
55068;BME280;40965;52.368;9.712;2023-02-19T01:36:16;100665.75;;;7.47;100.00
55068;BME280;40965;52.368;9.712;2023-02-19T01:38:43;100662.22;;;7.34;100.00
55068;BME280;40965;52.368;9.712;2023-02-19T01:41:17;100658.72;;;7.22;100.00
55068;BME280;40965;52.368;9.712;2023-02-19T01:46:52;100657.78;;;7.09;100.00
55068;BME280;40965;52.368;9.712;2023-02-19T01:49:32;100651.69;;;7.03;100.00
55068;BME280;40965;52.368;9.712;2023-02-19T01:52:10;100654.25;;;6.97;100.00
55068;BME280;40965;52.368;9.712;2023-02-19T01:54:43;100647.25;;;6.91;100.00
55068;BME280;40965;52.368;9.712;2023-02-19T01:57:21;100642.03;;;6.86;100.00
55068;BME280;40965;52.368;9.712;2023-02-19T01:59:52;100628.97;;;6.78;100.00
55068;BME280;40965;52.368;9.712;2023-02-19T02:02:23;100631.53;;;6.74;100.00
55068;BME280;40965;52.368;9.712;2023-02-19T02:04:54;100633.22;;;6.69;100.00
55068;BME280;40965;52.368;9.712;2023-02-19T02:07:22;100626.25;;;6.65;100.00
55068;BME280;40965;52.368;9.712;2023-02-19T02:10:06;100628.88;;;6.63;100.00
55068;BME280;40965;52.368;9.712;2023-02-19T02:12:49;100626.25;;;6.60;100.00
55068;BME280;40965;52.368;9.712;2023-02-19T02:15:17;100628.81;;;6.57;100.00
55068;BME280;40965;52.368;9.712;2023-02-19T02:17:58;100630.56;;;6.56;100.00
55068;BME280;40965;52.368;9.712;2023-02-19T02:24:11;100627.94;;;6.55;100.00
55068;BME280;40965;52.368;9.712;2023-02-19T02:27:24;100616.66;;;6.54;100.00
55068;BME280;40965;52.368;9.712;2023-02-19T02:30:22;100616.66;;;6.54;100.00
55068;BME280;40965;52.368;9.712;2023-02-19T02:33:14;100614.09;;;6.56;100.00
55068;BME280;40965;52.368;9.712;2023-02-19T02:36:19;100614.09;;;6.57;100.00
55068;BME280;40965;52.368;9.712;2023-02-19T02:38:49;100617.56;;;6.58;100.00
55068;BME280;40965;52.368;9.712;2023-02-19T02:41:17;100619.31;;;6.62;100.00
55068;BME280;40965;52.368;9.712;2023-02-19T02:43:43;100620.22;;;6.64;100.00
55068;BME280;40965;52.368;9.712;2023-02-19T02:46:11;100618.50;;;6.69;100.00
55068;BME280;40965;52.368;9.712;2023-02-19T02:48:42;100617.66;;;6.73;100.00
55068;BME280;40965;52.368;9.712;2023-02-19T02:51:27;100607.31;;;6.84;100.00
55068;BME280;40965;52.368;9.712;2023-02-19T02:54:07;100605.59;;;6.88;100.00
55068;BME280;40965;52.368;9.712;2023-02-19T02:57:05;100596.97;;;7.00;100.00
55068;BME280;40965;52.368;9.712;2023-02-19T02:59:36;100601.38;;;7.07;100.00
55068;BME280;40965;52.368;9.712;2023-02-19T03:02:09;100594.44;;;7.15;100.00
55068;BME280;40965;52.368;9.712;2023-02-19T03:04:53;100597.97;;;7.25;100.00
55068;BME280;40965;52.368;9.712;2023-02-19T03:07:50;100597.97;;;7.26;100.00
55068;BME280;40965;52.368;9.712;2023-02-19T03:10:26;100591.06;;;7.32;100.00
55068;BME280;40965;52.368;9.712;2023-02-19T03:12:58;100599.75;;;7.40;100.00
55068;BME280;40965;52.368;9.712;2023-02-19T03:15:49;100585.00;;;7.48;100.00
55068;BME280;40965;52.368;9.712;2023-02-19T03:18:41;100627.56;;;7.50;100.00
55068;BME280;40965;52.368;9.712;2023-02-19T03:21:26;100625.81;;;7.44;100.00
55068;BME280;40965;52.368;9.712;2023-02-19T03:23:54;100632.72;;;7.32;100.00
55068;BME280;40965;52.368;9.712;2023-02-19T03:26:39;100658.63;;;7.07;100.00
55068;BME280;40965;52.368;9.712;2023-02-19T03:29:10;100669.75;;;6.83;100.00
55068;BME280;40965;52.368;9.712;2023-02-19T03:31:54;100677.38;;;6.59;100.00
55068;BME280;40965;52.368;9.712;2023-02-19T03:34:32;100661.66;;;6.44;100.00
55068;BME280;40965;52.368;9.712;2023-02-19T03:37:26;100669.28;;;6.24;100.00
55068;BME280;40965;52.368;9.712;2023-02-19T03:39:56;100666.47;;;5.99;100.00
55068;BME280;40965;52.368;9.712;2023-02-19T03:42:42;100673.22;;;5.85;100.00
55068;BME280;40965;52.368;9.712;2023-02-19T03:45:45;100681.75;;;5.73;100.00
55068;BME280;40965;52.368;9.712;2023-02-19T03:48:30;100688.69;;;5.74;100.00
55068;BME280;40965;52.368;9.712;2023-02-19T03:51:24;100690.38;;;5.72;100.00
55068;BME280;40965;52.368;9.712;2023-02-19T03:54:02;100688.53;;;5.63;100.00
55068;BME280;40965;52.368;9.712;2023-02-19T03:56:48;100697.13;;;5.56;100.00
55068;BME280;40965;52.368;9.712;2023-02-19T03:59:36;100698.81;;;5.52;100.00
55068;BME280;40965;52.368;9.712;2023-02-19T04:02:12;100699.63;;;5.50;100.00
55068;BME280;40965;52.368;9.712;2023-02-19T04:04:52;100699.56;;;5.43;100.00
55068;BME280;40965;52.368;9.712;2023-02-19T04:07:21;100711.59;;;5.37;100.00
55068;BME280;40965;52.368;9.712;2023-02-19T04:09:50;100723.63;;;5.32;100.00
55068;BME280;40965;52.368;9.712;2023-02-19T04:12:17;100710.53;;;5.24;100.00
55068;BME280;40965;52.368;9.712;2023-02-19T04:14:49;100727.03;;;5.27;100.00
55068;BME280;40965;52.368;9.712;2023-02-19T04:17:26;100725.34;;;5.29;100.00
55068;BME280;40965;52.368;9.712;2023-02-19T04:20:02;100738.25;;;5.26;100.00
55068;BME280;40965;52.368;9.712;2023-02-19T04:22:33;100745.16;;;5.23;100.00
55068;BME280;40965;52.368;9.712;2023-02-19T04:25:02;100747.75;;;5.23;100.00
55068;BME280;40965;52.368;9.712;2023-02-19T04:27:28;100765.00;;;5.19;100.00
55068;BME280;40965;52.368;9.712;2023-02-19T04:29:58;100764.06;;;5.16;100.00
55068;BME280;40965;52.368;9.712;2023-02-19T04:32:25;100766.59;;;5.11;100.00
55068;BME280;40965;52.368;9.712;2023-02-19T04:34:51;100776.94;;;5.08;100.00
55068;BME280;40965;52.368;9.712;2023-02-19T04:37:18;100787.31;;;5.09;100.00
55068;BME280;40965;52.368;9.712;2023-02-19T04:39:44;100776.09;;;5.09;100.00
55068;BME280;40965;52.368;9.712;2023-02-19T04:42:11;100776.06;;;5.07;100.00
55068;BME280;40965;52.368;9.712;2023-02-19T04:44:37;100777.72;;;5.02;100.00
55068;BME280;40965;52.368;9.712;2023-02-19T04:47:04;100795.88;;;5.01;100.00
55068;BME280;40965;52.368;9.712;2023-02-19T04:49:30;100794.13;;;5.01;100.00
55068;BME280;40965;52.368;9.712;2023-02-19T04:51:57;100803.53;;;4.94;100.00
55068;BME280;40965;52.368;9.712;2023-02-19T04:54:23;100809.53;;;4.92;100.00
55068;BME280;40965;52.368;9.712;2023-02-19T04:56:50;100823.22;;;4.83;100.00
55068;BME280;40965;52.368;9.712;2023-02-19T04:59:16;100839.69;;;4.85;100.00
55068;BME280;40965;52.368;9.712;2023-02-19T05:01:43;100857.09;;;4.91;100.00
55068;BME280;40965;52.368;9.712;2023-02-19T05:04:09;100850.22;;;4.94;100.00
55068;BME280;40965;52.368;9.712;2023-02-19T05:06:36;100862.28;;;4.91;100.00
55068;BME280;40965;52.368;9.712;2023-02-19T05:09:02;100856.09;;;4.84;100.00
55068;BME280;40965;52.368;9.712;2023-02-19T05:11:29;100863.84;;;4.81;100.00
55068;BME280;40965;52.368;9.712;2023-02-19T05:13:55;100868.13;;;4.79;100.00
55068;BME280;40965;52.368;9.712;2023-02-19T05:16:22;100868.16;;;4.82;100.00
55068;BME280;40965;52.368;9.712;2023-02-19T05:18:48;100873.31;;;4.79;100.00
55068;BME280;40965;52.368;9.712;2023-02-19T05:21:15;100872.38;;;4.77;100.00
55068;BME280;40965;52.368;9.712;2023-02-19T05:23:42;100872.34;;;4.74;100.00
55068;BME280;40965;52.368;9.712;2023-02-19T05:26:15;100877.47;;;4.71;100.00
55068;BME280;40965;52.368;9.712;2023-02-19T05:28:47;100872.19;;;4.66;100.00
55068;BME280;40965;52.368;9.712;2023-02-19T05:31:18;100879.81;;;4.57;100.00
55068;BME280;40965;52.368;9.712;2023-02-19T05:33:45;100886.63;;;4.53;100.00
55068;BME280;40965;52.368;9.712;2023-02-19T05:36:15;100904.75;;;4.52;100.00
55068;BME280;40965;52.368;9.712;2023-02-19T05:38:42;100904.47;;;4.38;100.00
55068;BME280;40965;52.368;9.712;2023-02-19T05:41:15;100908.63;;;4.29;100.00
55068;BME280;40965;52.368;9.712;2023-02-19T05:43:44;100906.69;;;4.19;100.00
55068;BME280;40965;52.368;9.712;2023-02-19T05:46:14;100917.88;;;4.17;100.00
55068;BME280;40965;52.368;9.712;2023-02-19T05:48:42;100923.06;;;4.18;100.00
55068;BME280;40965;52.368;9.712;2023-02-19T05:51:11;100927.47;;;4.22;100.00
55068;BME280;40965;52.368;9.712;2023-02-19T05:53:40;100935.97;;;4.15;100.00
55068;BME280;40965;52.368;9.712;2023-02-19T05:56:39;100946.09;;;4.04;100.00
55068;BME280;40965;52.368;9.712;2023-02-19T06:01:39;100956.34;;;4.00;100.00
55068;BME280;40965;52.368;9.712;2023-02-19T06:04:07;100959.88;;;4.02;100.00
55068;BME280;40965;52.368;9.712;2023-02-19T06:06:35;100966.78;;;4.03;100.00
55068;BME280;40965;52.368;9.712;2023-02-19T06:09:03;100974.50;;;4.01;100.00
55068;BME280;40965;52.368;9.712;2023-02-19T06:11:30;100994.53;;;4.07;100.00
55068;BME280;40965;52.368;9.712;2023-02-19T06:13:57;101000.28;;;3.95;100.00
55068;BME280;40965;52.368;9.712;2023-02-19T06:16:23;101013.78;;;3.81;100.00
55068;BME280;40965;52.368;9.712;2023-02-19T06:18:50;101020.28;;;3.66;100.00
55068;BME280;40965;52.368;9.712;2023-02-19T06:21:16;101021.75;;;3.56;100.00
55068;BME280;40965;52.368;9.712;2023-02-19T06:23:44;101029.19;;;3.42;100.00
55068;BME280;40965;52.368;9.712;2023-02-19T06:26:17;101026.28;;;3.31;100.00
55068;BME280;40965;52.368;9.712;2023-02-19T06:28:48;101038.16;;;3.23;100.00
55068;BME280;40965;52.368;9.712;2023-02-19T06:31:16;101039.72;;;3.18;100.00
55068;BME280;40965;52.368;9.712;2023-02-19T06:33:44;101039.53;;;3.10;100.00
55068;BME280;40965;52.368;9.712;2023-02-19T06:36:15;101046.41;;;3.09;100.00
55068;BME280;40965;52.368;9.712;2023-02-19T06:38:43;101056.78;;;3.11;100.00
55068;BME280;40965;52.368;9.712;2023-02-19T06:41:10;101062.81;;;3.10;100.00
55068;BME280;40965;52.368;9.712;2023-02-19T06:43:38;101075.66;;;3.07;100.00
55068;BME280;40965;52.368;9.712;2023-02-19T06:46:05;101081.84;;;3.12;100.00
55068;BME280;40965;52.368;9.712;2023-02-19T06:48:33;101098.03;;;3.06;100.00
55068;BME280;40965;52.368;9.712;2023-02-19T06:51:00;101094.44;;;3.01;100.00
55068;BME280;40965;52.368;9.712;2023-02-19T06:53:27;101102.19;;;3.01;100.00
55068;BME280;40965;52.368;9.712;2023-02-19T06:55:56;101111.69;;;3.01;100.00
55068;BME280;40965;52.368;9.712;2023-02-19T06:58:24;101113.25;;;2.95;100.00
55068;BME280;40965;52.368;9.712;2023-02-19T07:00:51;101124.34;;;2.91;100.00
55068;BME280;40965;52.368;9.712;2023-02-19T07:03:17;101127.69;;;2.87;100.00
55068;BME280;40965;52.368;9.712;2023-02-19T07:05:44;101131.91;;;2.85;100.00
55068;BME280;40965;52.368;9.712;2023-02-19T07:08:10;101139.78;;;2.88;100.00
55068;BME280;40965;52.368;9.712;2023-02-19T07:10:37;101144.94;;;2.88;100.00
55068;BME280;40965;52.368;9.712;2023-02-19T07:13:04;101168.38;;;2.94;100.00
55068;BME280;40965;52.368;9.712;2023-02-19T07:15:31;101174.56;;;3.00;100.00
55068;BME280;40965;52.368;9.712;2023-02-19T07:17:58;101188.53;;;3.05;100.00
55068;BME280;40965;52.368;9.712;2023-02-19T07:20:25;101185.13;;;3.06;100.00
55068;BME280;40965;52.368;9.712;2023-02-19T07:22:51;101195.63;;;3.10;100.00
55068;BME280;40965;52.368;9.712;2023-02-19T07:25:18;101201.84;;;3.17;100.00
55068;BME280;40965;52.368;9.712;2023-02-19T07:27:45;101210.59;;;3.21;100.00
55068;BME280;40965;52.368;9.712;2023-02-19T07:30:24;101218.50;;;3.27;100.00
55068;BME280;40965;52.368;9.712;2023-02-19T07:32:56;101222.94;;;3.31;100.00
55068;BME280;40965;52.368;9.712;2023-02-19T07:35:32;101239.31;;;3.30;100.00
55068;BME280;40965;52.368;9.712;2023-02-19T07:38:17;101247.03;;;3.28;100.00
55068;BME280;40965;52.368;9.712;2023-02-19T07:40:54;101247.97;;;3.30;100.00
55068;BME280;40965;52.368;9.712;2023-02-19T07:43:24;101249.81;;;3.35;100.00
55068;BME280;40965;52.368;9.712;2023-02-19T07:45:51;101255.09;;;3.38;100.00
55068;BME280;40965;52.368;9.712;2023-02-19T07:48:18;101243.22;;;3.44;100.00
55068;BME280;40965;52.368;9.712;2023-02-19T07:53:19;101254.69;;;3.54;100.00
55068;BME280;40965;52.368;9.712;2023-02-19T07:55:46;101261.03;;;3.64;100.00
55068;BME280;40965;52.368;9.712;2023-02-19T07:58:13;101264.41;;;3.61;100.00
55068;BME280;40965;52.368;9.712;2023-02-19T08:00:39;101275.75;;;3.65;100.00
55068;BME280;40965;52.368;9.712;2023-02-19T08:03:06;101276.69;;;3.69;100.00
55068;BME280;40965;52.368;9.712;2023-02-19T08:05:40;101282.25;;;3.81;100.00
55068;BME280;40965;52.368;9.712;2023-02-19T08:08:16;101287.66;;;3.89;100.00
55068;BME280;40965;52.368;9.712;2023-02-19T08:10:42;101286.84;;;3.91;100.00
55068;BME280;40965;52.368;9.712;2023-02-19T08:13:28;101284.41;;;3.97;100.00
55068;BME280;40965;52.368;9.712;2023-02-19T08:18:30;101303.41;;;3.96;100.00
55068;BME280;40965;52.368;9.712;2023-02-19T08:20:58;101305.13;;;3.97;100.00
55068;BME280;40965;52.368;9.712;2023-02-19T08:23:26;101305.13;;;3.97;100.00
55068;BME280;40965;52.368;9.712;2023-02-19T08:25:56;101308.50;;;3.95;100.00
55068;BME280;40965;52.368;9.712;2023-02-19T08:28:24;101302.41;;;3.91;100.00
55068;BME280;40965;52.368;9.712;2023-02-19T08:30:51;101314.63;;;3.97;100.00
55068;BME280;40965;52.368;9.712;2023-02-19T08:33:19;101327.06;;;4.09;100.00
55068;BME280;40965;52.368;9.712;2023-02-19T08:35:46;101331.69;;;4.21;100.00
55068;BME280;40965;52.368;9.712;2023-02-19T08:38:13;101335.41;;;4.29;100.00
55068;BME280;40965;52.368;9.712;2023-02-19T08:40:41;101323.38;;;4.33;100.00
55068;BME280;40965;52.368;9.712;2023-02-19T08:43:10;101325.44;;;4.44;100.00
55068;BME280;40965;52.368;9.712;2023-02-19T08:45:40;101333.53;;;4.55;100.00
55068;BME280;40965;52.368;9.712;2023-02-19T08:48:08;101321.34;;;4.53;100.00
55068;BME280;40965;52.368;9.712;2023-02-19T08:50:36;101323.03;;;4.52;100.00
55068;BME280;40965;52.368;9.712;2023-02-19T08:53:04;101336.00;;;4.52;100.00
55068;BME280;40965;52.368;9.712;2023-02-19T08:55:32;101334.97;;;4.45;100.00
55068;BME280;40965;52.368;9.712;2023-02-19T08:58:00;101333.22;;;4.44;100.00
55068;BME280;40965;52.368;9.712;2023-02-19T09:00:26;101338.28;;;4.40;100.00
55068;BME280;40965;52.368;9.712;2023-02-19T09:02:53;101339.16;;;4.40;100.00
55068;BME280;40965;52.368;9.712;2023-02-19T09:05:19;101338.06;;;4.32;100.00
55068;BME280;40965;52.368;9.712;2023-02-19T09:07:46;101345.84;;;4.32;100.00
55068;BME280;40965;52.368;9.712;2023-02-19T09:10:13;101352.63;;;4.27;100.00
55068;BME280;40965;52.368;9.712;2023-02-19T09:12:39;101354.50;;;4.33;100.00
55068;BME280;40965;52.368;9.712;2023-02-19T09:15:06;101366.41;;;4.56;100.00
55068;BME280;40965;52.368;9.712;2023-02-19T09:17:34;101376.81;;;4.58;100.00
55068;BME280;40965;52.368;9.712;2023-02-19T09:20:00;101391.56;;;4.60;100.00
55068;BME280;40965;52.368;9.712;2023-02-19T09:22:27;101386.94;;;4.82;100.00
55068;BME280;40965;52.368;9.712;2023-02-19T09:24:54;101385.28;;;5.18;100.00
55068;BME280;40965;52.368;9.712;2023-02-19T09:27:20;101390.13;;;5.39;100.00
55068;BME280;40965;52.368;9.712;2023-02-19T09:29:48;101392.94;;;5.48;100.00
55068;BME280;40965;52.368;9.712;2023-02-19T09:32:15;101398.19;;;5.51;100.00
55068;BME280;40965;52.368;9.712;2023-02-19T09:34:42;101401.91;;;5.62;100.00
55068;BME280;40965;52.368;9.712;2023-02-19T09:37:08;101401.13;;;5.67;100.00
55068;BME280;40965;52.368;9.712;2023-02-19T09:39:35;101399.34;;;5.64;100.00
55068;BME280;40965;52.368;9.712;2023-02-19T09:42:15;101391.69;;;5.69;100.00
55068;BME280;40965;52.368;9.712;2023-02-19T09:44:47;101407.16;;;5.64;100.00
55068;BME280;40965;52.368;9.712;2023-02-19T09:47:24;101404.38;;;5.56;100.00
55068;BME280;40965;52.368;9.712;2023-02-19T09:49:55;101417.53;;;5.64;100.00
55068;BME280;40965;52.368;9.712;2023-02-19T09:55:02;101417.06;;;5.80;100.00
55068;BME280;40965;52.368;9.712;2023-02-19T09:57:35;101423.41;;;5.93;100.00
55068;BME280;40965;52.368;9.712;2023-02-19T10:00:12;101427.78;;;5.94;100.00
55068;BME280;40965;52.368;9.712;2023-02-19T10:03:05;101439.22;;;6.01;100.00
55068;BME280;40965;52.368;9.712;2023-02-19T10:05:38;101448.31;;;6.22;100.00
55068;BME280;40965;52.368;9.712;2023-02-19T10:08:08;101459.69;;;6.27;100.00
55068;BME280;40965;52.368;9.712;2023-02-19T10:10:39;101476.75;;;6.14;100.00
55068;BME280;40965;52.368;9.712;2023-02-19T10:13:14;101469.25;;;6.28;100.00
55068;BME280;40965;52.368;9.712;2023-02-19T10:15:52;101471.47;;;6.51;100.00
55068;BME280;40965;52.368;9.712;2023-02-19T10:18:25;101481.72;;;6.86;100.00
55068;BME280;40965;52.368;9.712;2023-02-19T10:20:57;101489.88;;;7.03;100.00
55068;BME280;40965;52.368;9.712;2023-02-19T10:23:24;101505.25;;;6.92;98.44
55068;BME280;40965;52.368;9.712;2023-02-19T10:25:55;101515.13;;;6.64;98.42
55068;BME280;40965;52.368;9.712;2023-02-19T10:30:29;101515.59;;;6.87;98.18
55068;BME280;40965;52.368;9.712;2023-02-19T10:33:08;101518.41;;;7.00;95.49
55068;BME280;40965;52.368;9.712;2023-02-19T10:35:49;101529.47;;;6.88;95.81
55068;BME280;40965;52.368;9.712;2023-02-19T10:38:19;101531.69;;;6.69;95.31
55068;BME280;40965;52.368;9.712;2023-02-19T10:40:57;101536.94;;;6.71;95.33
55068;BME280;40965;52.368;9.712;2023-02-19T10:43:33;101538.25;;;6.93;96.14
55068;BME280;40965;52.368;9.712;2023-02-19T10:46:06;101538.16;;;7.33;94.09
55068;BME280;40965;52.368;9.712;2023-02-19T10:48:48;101531.81;;;7.66;91.85
55068;BME280;40965;52.368;9.712;2023-02-19T10:51:37;101538.16;;;7.83;90.04
55068;BME280;40965;52.368;9.712;2023-02-19T10:54:16;101531.38;;;7.93;88.70
55068;BME280;40965;52.368;9.712;2023-02-19T10:56:45;101528.66;;;7.87;86.10
55068;BME280;40965;52.368;9.712;2023-02-19T11:01:59;101533.69;;;7.25;88.89
55068;BME280;40965;52.368;9.712;2023-02-19T11:04:31;101539.94;;;6.91;90.11
55068;BME280;40965;52.368;9.712;2023-02-19T11:07:14;101536.72;;;7.03;90.64
55068;BME280;40965;52.368;9.712;2023-02-19T11:09:44;101539.19;;;7.41;90.22
55068;BME280;40965;52.368;9.712;2023-02-19T11:12:13;101538.19;;;7.85;87.78
55068;BME280;40965;52.368;9.712;2023-02-19T11:14:51;101537.47;;;7.95;84.61
55068;BME280;40965;52.368;9.712;2023-02-19T11:17:26;101535.50;;;7.78;85.26
55068;BME280;40965;52.368;9.712;2023-02-19T11:19:56;101539.78;;;7.75;86.93
55068;BME280;40965;52.368;9.712;2023-02-19T11:22:37;101556.75;;;7.53;86.50
55068;BME280;40965;52.368;9.712;2023-02-19T11:28:19;101565.94;;;6.89;87.70
55068;BME280;40965;52.368;9.712;2023-02-19T11:30:49;101575.53;;;6.92;88.94
55068;BME280;40965;52.368;9.712;2023-02-19T11:33:21;101568.03;;;7.06;86.05
55068;BME280;40965;52.368;9.712;2023-02-19T11:35:57;101556.66;;;7.48;87.17
55068;BME280;40965;52.368;9.712;2023-02-19T11:38:41;101549.94;;;7.59;84.59
55068;BME280;40965;52.368;9.712;2023-02-19T11:44:07;101556.41;;;7.34;84.21
55068;BME280;40965;52.368;9.712;2023-02-19T11:47:19;101566.56;;;7.20;84.83
55068;BME280;40965;52.368;9.712;2023-02-19T11:50:11;101562.94;;;7.12;81.88
55068;BME280;40965;52.368;9.712;2023-02-19T11:52:59;101563.19;;;7.26;81.95
55068;BME280;40965;52.368;9.712;2023-02-19T11:58:50;101560.00;;;7.90;80.44
55068;BME280;40965;52.368;9.712;2023-02-19T12:02:05;101555.94;;;8.06;79.53
55068;BME280;40965;52.368;9.712;2023-02-19T12:07:45;101550.84;;;8.15;76.33
55068;BME280;40965;52.368;9.712;2023-02-19T12:11:16;101540.47;;;8.20;75.76
55068;BME280;40965;52.368;9.712;2023-02-19T12:14:20;101537.63;;;8.04;75.18
55068;BME280;40965;52.368;9.712;2023-02-19T12:17:41;101544.28;;;7.84;78.61
55068;BME280;40965;52.368;9.712;2023-02-19T12:20:29;101546.50;;;7.64;78.35
55068;BME280;40965;52.368;9.712;2023-02-19T12:25:57;101542.63;;;7.40;78.21
55068;BME280;40965;52.368;9.712;2023-02-19T12:28:57;101548.22;;;7.16;79.31
55068;BME280;40965;52.368;9.712;2023-02-19T12:31:58;101557.63;;;7.07;77.14
55068;BME280;40965;52.368;9.712;2023-02-19T12:35:14;101555.94;;;7.09;78.76
55068;BME280;40965;52.368;9.712;2023-02-19T12:40:52;101573.59;;;7.24;76.92
55068;BME280;40965;52.368;9.712;2023-02-19T12:43:36;101576.19;;;7.24;76.31
55068;BME280;40965;52.368;9.712;2023-02-19T12:46:19;101576.28;;;7.27;76.49
55068;BME280;40965;52.368;9.712;2023-02-19T12:48:58;101569.28;;;7.25;77.01
55068;BME280;40965;52.368;9.712;2023-02-19T12:51:32;101578.56;;;7.12;75.81
55068;BME280;40965;52.368;9.712;2023-02-19T12:54:11;101584.66;;;7.14;75.93
55068;BME280;40965;52.368;9.712;2023-02-19T12:56:56;101592.81;;;7.31;77.11
55068;BME280;40965;52.368;9.712;2023-02-19T12:59:31;101581.88;;;7.49;76.66
55068;BME280;40965;52.368;9.712;2023-02-19T13:05:10;101577.47;;;7.45;71.72
55068;BME280;40965;52.368;9.712;2023-02-19T13:07:55;101584.94;;;7.28;72.46
55068;BME280;40965;52.368;9.712;2023-02-19T13:10:38;101588.09;;;7.13;72.50
55068;BME280;40965;52.368;9.712;2023-02-19T13:13:16;101595.06;;;7.12;74.02
55068;BME280;40965;52.368;9.712;2023-02-19T13:15:55;101593.38;;;7.15;73.93
55068;BME280;40965;52.368;9.712;2023-02-19T13:18:28;101600.31;;;7.16;74.25
55068;BME280;40965;52.368;9.712;2023-02-19T13:21:03;101602.88;;;7.14;74.34
55068;BME280;40965;52.368;9.712;2023-02-19T13:23:34;101610.69;;;7.14;75.40
55068;BME280;40965;52.368;9.712;2023-02-19T13:29:19;101599.59;;;7.21;73.70
55068;BME280;40965;52.368;9.712;2023-02-19T13:32:16;101583.38;;;7.38;73.99
55068;BME280;40965;52.368;9.712;2023-02-19T13:37:43;101582.31;;;7.74;71.85
55068;BME280;40965;52.368;9.712;2023-02-19T13:40:21;101576.69;;;8.00;72.02
55068;BME280;40965;52.368;9.712;2023-02-19T13:43:25;101576.28;;;8.30;70.94
55068;BME280;40965;52.368;9.712;2023-02-19T13:46:07;101557.56;;;8.56;70.11
55068;BME280;40965;52.368;9.712;2023-02-19T13:48:38;101557.78;;;8.74;69.05
55068;BME280;40965;52.368;9.712;2023-02-19T13:59:12;101561.91;;;8.55;68.87
55068;BME280;40965;52.368;9.712;2023-02-19T14:02:09;101559.25;;;8.52;68.30
55068;BME280;40965;52.368;9.712;2023-02-19T14:07:52;101571.34;;;8.47;67.77
55068;BME280;40965;52.368;9.712;2023-02-19T14:13:54;101567.72;;;8.40;66.04
55068;BME280;40965;52.368;9.712;2023-02-19T14:19:13;101586.69;;;8.28;67.41
55068;BME280;40965;52.368;9.712;2023-02-19T14:25:31;101592.03;;;8.36;67.76
55068;BME280;40965;52.368;9.712;2023-02-19T14:28:15;101597.28;;;8.39;66.58
55068;BME280;40965;52.368;9.712;2023-02-19T14:31:09;101596.25;;;8.28;67.18
55068;BME280;40965;52.368;9.712;2023-02-19T14:34:12;101589.19;;;8.22;68.15
55068;BME280;40965;52.368;9.712;2023-02-19T14:36:54;101601.16;;;8.09;68.26
55068;BME280;40965;52.368;9.712;2023-02-19T14:39:31;101604.44;;;7.98;68.97